createdAt,value
2023-02-18T00:00:39.778Z,101529.47
2023-02-18T00:05:42.611Z,101526.72
2023-02-18T00:10:45.553Z,101544.50
2023-02-18T00:15:49.854Z,101540.31
2023-02-18T00:20:52.742Z,101538.41
2023-02-18T00:26:00.457Z,101549.56
2023-02-18T00:31:08.768Z,101543.16
2023-02-18T00:36:13.346Z,101538.13
2023-02-18T00:41:16.559Z,101530.34
2023-02-18T00:46:21.176Z,101537.41
2023-02-18T00:51:25.414Z,101534.75
2023-02-18T00:56:28.354Z,101522.75
2023-02-18T01:01:33.545Z,101512.47
2023-02-18T01:06:37.692Z,101503.25
2023-02-18T01:11:41.888Z,101499.25
2023-02-18T01:16:46.807Z,101495.03
2023-02-18T01:21:49.668Z,101498.50
2023-02-18T01:26:52.554Z,101499.34
2023-02-18T01:31:57.001Z,101485.47
2023-02-18T01:36:59.993Z,101485.25
2023-02-18T01:42:02.856Z,101483.28
2023-02-18T01:47:07.144Z,101485.41
2023-02-18T01:52:10.958Z,101488.88
2023-02-18T01:57:15.296Z,101491.06
2023-02-18T02:02:21.158Z,101493.25
2023-02-18T02:07:25.665Z,101483.81
2023-02-18T02:12:46.156Z,101487.34
2023-02-18T02:17:55.735Z,101489.91
2023-02-18T02:23:13.742Z,101506.09
2023-02-18T02:28:32.984Z,101497.66
2023-02-18T02:33:51.224Z,101485.66
2023-02-18T02:39:04.443Z,101485.50
2023-02-18T02:44:13.645Z,101493.97
2023-02-18T02:49:26.863Z,101493.97
2023-02-18T02:54:35.166Z,101492.16
2023-02-18T02:59:41.267Z,101487.75
2023-02-18T03:04:54.510Z,101484.38
2023-02-18T03:10:12.740Z,101482.97
2023-02-18T03:15:22.950Z,101479.00
2023-02-18T03:20:29.146Z,101469.75
2023-02-18T03:25:35.516Z,101479.06
2023-02-18T03:30:42.103Z,101474.38
2023-02-18T03:35:48.117Z,101470.38
2023-02-18T03:40:54.936Z,101470.94
2023-02-18T03:45:59.260Z,101471.59
2023-02-18T03:51:03.320Z,101469.88
2023-02-18T03:56:10.739Z,101464.00
2023-02-18T04:01:14.755Z,101489.00
2023-02-18T04:06:18.891Z,101488.78
2023-02-18T04:11:27.096Z,101488.19
2023-02-18T04:16:32.352Z,101488.47
2023-02-18T04:21:36.492Z,101492.09
2023-02-18T04:26:41.532Z,101496.47
2023-02-18T04:31:44.615Z,101500.84
2023-02-18T04:36:47.624Z,101499.94
2023-02-18T04:41:52.023Z,101499.03
2023-02-18T04:46:55.069Z,101490.25
2023-02-18T04:51:58.291Z,101498.19
2023-02-18T04:57:02.705Z,101501.81
2023-02-18T05:02:05.896Z,101505.50
2023-02-18T05:07:08.881Z,101504.50
2023-02-18T05:12:13.272Z,101493.06
2023-02-18T05:17:16.304Z,101495.56
2023-02-18T05:22:19.261Z,101487.47
2023-02-18T05:27:23.674Z,101498.72
2023-02-18T05:32:26.617Z,101497.44
2023-02-18T05:37:29.732Z,101477.88
2023-02-18T05:42:34.281Z,101489.56
2023-02-18T05:47:37.234Z,101492.03
2023-02-18T05:52:40.394Z,101491.22
2023-02-18T05:57:44.790Z,101486.97
2023-02-18T06:02:47.815Z,101487.72
2023-02-18T06:07:50.808Z,101496.44
2023-02-18T06:12:55.189Z,101495.66
2023-02-18T06:17:58.098Z,101503.16
2023-02-18T06:23:01.059Z,101498.97
2023-02-18T06:28:05.426Z,101513.16
2023-02-18T06:33:08.334Z,101509.88
2023-02-18T06:38:11.325Z,101511.03
2023-02-18T06:43:15.619Z,101518.03
2023-02-18T06:48:18.544Z,101533.09
2023-02-18T06:53:21.518Z,101520.91
2023-02-18T06:58:25.848Z,101524.34
2023-02-18T07:03:29.199Z,101531.44
2023-02-18T07:08:33.409Z,101536.81
2023-02-18T07:13:37.766Z,101541.19
2023-02-18T07:18:40.721Z,101543.81
2023-02-18T07:23:43.626Z,101550.03
2023-02-18T07:28:47.957Z,101566.59
2023-02-18T07:33:50.951Z,101570.78
2023-02-18T07:38:53.904Z,101573.41
2023-02-18T07:43:58.273Z,101578.63
2023-02-18T07:49:01.378Z,101596.38
2023-02-18T07:54:04.356Z,101598.22
2023-02-18T07:59:08.597Z,101604.06
2023-02-18T08:04:11.609Z,101612.59
2023-02-18T08:09:14.753Z,101616.06
2023-02-18T08:14:19.120Z,101624.53
2023-02-18T08:19:22.094Z,101616.16
2023-02-18T08:24:25.043Z,101628.41
2023-02-18T08:29:31.242Z,101629.47
2023-02-18T08:34:34.224Z,101628.81
2023-02-18T08:39:39.278Z,101627.69
2023-02-18T08:44:44.348Z,101634.22
2023-02-18T08:49:47.315Z,101630.13
2023-02-18T08:54:50.337Z,101636.25
2023-02-18T08:59:54.705Z,101647.84
2023-02-18T09:04:57.640Z,101651.28
2023-02-18T09:10:00.618Z,101656.28
2023-02-18T09:15:05.294Z,101652.03
2023-02-18T09:20:09.018Z,101657.72
2023-02-18T09:25:12.412Z,101653.44
2023-02-18T09:30:17.280Z,101654.94
2023-02-18T09:35:20.756Z,101656.28
2023-02-18T09:40:26.979Z,101654.22
2023-02-18T09:45:31.724Z,101647.91
2023-02-18T09:50:35.490Z,101647.63
2023-02-18T09:55:41.239Z,101642.47
2023-02-18T10:00:47.648Z,101633.53
2023-02-18T10:05:56.753Z,101629.81
2023-02-18T10:10:59.780Z,101624.78
2023-02-18T10:16:05.194Z,101628.16
2023-02-18T10:21:10.526Z,101626.59
2023-02-18T10:26:16.889Z,101628.91
2023-02-18T10:31:29.190Z,101628.16
2023-02-18T10:36:36.317Z,101628.50
2023-02-18T10:41:47.533Z,101627.72
2023-02-18T10:46:59.751Z,101619.66
2023-02-18T10:52:05.936Z,101618.31
2023-02-18T10:57:20.155Z,101617.72
2023-02-18T11:02:28.374Z,101610.38
2023-02-18T11:07:33.753Z,101610.03
2023-02-18T11:12:43.800Z,101607.75
2023-02-18T11:17:49.668Z,101607.34
2023-02-18T11:22:52.982Z,101603.56
2023-02-18T11:27:57.791Z,101595.97
2023-02-18T11:33:04.214Z,101603.44
2023-02-18T11:38:18.869Z,101597.31
2023-02-18T11:43:22.140Z,101591.25
2023-02-18T11:48:26.802Z,101591.44
2023-02-18T11:53:30.628Z,101584.84
2023-02-18T11:58:39.457Z,101577.06
2023-02-18T12:03:45.639Z,101566.34
2023-02-18T12:08:50.498Z,101568.97
2023-02-18T12:13:55.291Z,101558.16
2023-02-18T12:19:21.463Z,101548.28
2023-02-18T12:24:31.997Z,101543.72
2023-02-18T12:29:41.483Z,101536.19
2023-02-18T12:34:54.520Z,101540.84
2023-02-18T12:40:05.806Z,101525.94
2023-02-18T12:45:24.006Z,101513.78
2023-02-18T12:50:35.830Z,101522.13
2023-02-18T12:55:45.126Z,101509.63
2023-02-18T13:01:06.640Z,101501.25
2023-02-18T13:06:19.435Z,101498.38
2023-02-18T13:11:28.991Z,101500.91
2023-02-18T13:16:32.877Z,101495.00
2023-02-18T13:21:37.885Z,101478.34
2023-02-18T13:26:43.117Z,101466.34
2023-02-18T13:31:52.192Z,101469.16
2023-02-18T13:37:03.545Z,101456.97
2023-02-18T13:42:14.413Z,101447.06
2023-02-18T13:47:36.756Z,101437.09
2023-02-18T13:52:41.043Z,101439.66
2023-02-18T13:57:43.891Z,101418.59
2023-02-18T14:02:57.338Z,101413.34
2023-02-18T14:08:08.132Z,101403.16
2023-02-18T14:13:25.864Z,101389.91
2023-02-18T14:18:49.490Z,101389.47
2023-02-18T14:24:06.204Z,101382.16
2023-02-18T14:29:13.334Z,101369.78
2023-02-18T14:34:39.637Z,101373.41
2023-02-18T14:39:53.761Z,101357.69
2023-02-18T14:45:08.343Z,101358.53
2023-02-18T14:50:13.455Z,101354.34
2023-02-18T14:55:20.587Z,101356.44
2023-02-18T15:00:24.819Z,101341.72
2023-02-18T15:05:31.799Z,101339.97
2023-02-18T15:10:43.017Z,101343.91
2023-02-18T15:15:47.832Z,101326.63
2023-02-18T15:20:52.379Z,101322.19
2023-02-18T15:26:01.606Z,101316.28
2023-02-18T15:31:05.603Z,101316.56
2023-02-18T15:36:14.031Z,101319.06
2023-02-18T15:41:18.986Z,101316.97
2023-02-18T15:46:22.804Z,101309.81
2023-02-18T15:51:30.599Z,101314.69
2023-02-18T15:56:37.008Z,101307.63
2023-02-18T16:01:39.873Z,101308.72
2023-02-18T16:06:47.168Z,101305.28
2023-02-18T16:11:55.385Z,101309.19
2023-02-18T16:17:05.604Z,101301.81
2023-02-18T16:22:09.780Z,101304.72
2023-02-18T16:27:18.987Z,101294.94
2023-02-18T16:32:26.305Z,101291.00
2023-02-18T16:37:42.038Z,101294.88
2023-02-18T16:42:46.331Z,101295.50
2023-02-18T16:48:13.551Z,101307.34
2023-02-18T16:53:17.165Z,101303.25
2023-02-18T16:58:21.417Z,101319.75
2023-02-18T17:03:24.328Z,101312.06
2023-02-18T17:08:28.170Z,101318.09
2023-02-18T17:13:32.445Z,101323.09
2023-02-18T17:18:39.795Z,101316.19
2023-02-18T17:23:46.302Z,101318.41
2023-02-18T17:29:15.473Z,101325.06
2023-02-18T17:35:43.658Z,101324.97
2023-02-18T17:40:40.720Z,101323.56
2023-02-18T17:46:06.647Z,101339.59
2023-02-18T17:51:40.026Z,101334.63
2023-02-18T17:56:54.631Z,101347.94
2023-02-18T18:20:34.707Z,101347.94
2023-02-18T18:25:04.878Z,101353.19
2023-02-18T18:30:10.003Z,101351.59
2023-02-18T18:35:20.265Z,101354.16
2023-02-18T18:40:29.437Z,101362.22
2023-02-18T18:45:34.576Z,101366.34
2023-02-18T18:50:39.785Z,101372.72
2023-02-18T18:55:44.977Z,101378.09
2023-02-18T19:00:50.598Z,101385.34
2023-02-18T19:05:53.663Z,101379.31
2023-02-18T19:10:58.382Z,101383.84
2023-02-18T19:16:02.535Z,101398.91
2023-02-18T19:21:07.218Z,101393.47
2023-02-18T19:26:14.213Z,101398.34
2023-02-18T19:31:18.551Z,101401.91
2023-02-18T19:36:21.460Z,101399.63
2023-02-18T19:41:25.797Z,101400.72
2023-02-18T19:46:28.722Z,101396.19
2023-02-18T19:51:32.904Z,101402.22
2023-02-18T19:56:39.382Z,101403.31
2023-02-18T20:01:42.529Z,101404.63
2023-02-18T20:06:45.560Z,101410.06
2023-02-18T20:11:51.924Z,101423.34
2023-02-18T20:16:55.815Z,101419.81
2023-02-18T20:22:01.313Z,101426.28
2023-02-18T20:27:06.314Z,101422.81
2023-02-18T20:32:09.707Z,101420.91
2023-02-18T20:37:12.855Z,101424.91
2023-02-18T20:42:18.812Z,101423.78
2023-02-18T20:47:21.799Z,101432.75
2023-02-18T20:52:26.462Z,101432.31
2023-02-18T20:57:33.663Z,101437.09
2023-02-18T21:02:37.949Z,101454.75
2023-02-18T21:07:42.054Z,101446.06
2023-02-18T21:12:49.272Z,101450.50
2023-02-18T21:17:53.436Z,101460.59
2023-02-18T21:22:57.170Z,101454.78
2023-02-18T21:28:01.912Z,101453.47
2023-02-18T21:33:05.808Z,101455.59
2023-02-18T21:38:09.388Z,101468.16
2023-02-18T21:43:16.459Z,101464.06
2023-02-18T21:48:36.664Z,101468.81
2023-02-18T21:53:42.188Z,101463.59
2023-02-18T21:58:47.378Z,101461.06
2023-02-18T22:03:51.514Z,101470.06
2023-02-18T22:08:55.060Z,101463.25
2023-02-18T22:14:00.143Z,101469.34
2023-02-18T22:24:36.625Z,101468.28
2023-02-18T22:29:42.670Z,101471.66
2023-02-18T22:34:47.022Z,101477.44
2023-02-18T22:39:53.275Z,101472.47
2023-02-18T22:45:03.594Z,101476.13
2023-02-18T22:50:07.758Z,101469.88
2023-02-18T22:55:11.961Z,101458.53
2023-02-18T23:00:19.161Z,101448.13
2023-02-18T23:05:23.357Z,101456.41
2023-02-18T23:10:27.582Z,101461.53
2023-02-18T23:15:35.792Z,101456.06
2023-02-18T23:20:57.057Z,101454.53
2023-02-18T23:26:12.401Z,101454.09
2023-02-18T23:31:30.074Z,101450.47
2023-02-18T23:36:34.467Z,101449.97
2023-02-18T23:41:41.958Z,101449.03
2023-02-18T23:47:04.760Z,101448.56
2023-02-18T23:52:16.952Z,101441.41
2023-02-18T23:57:25.325Z,101452.16
